Time;durP1;ratioP1;P1;durP2;ratioP2;P2;SDS_P1;SDS_P2;PMS_P1;PMS_P2;Temp;Humidity;BMP_temperature;BMP_pressure;BME280_temperature;BME280_humidity;BME280_pressure;Samples;Min_cycle;Max_cycle;Signal;HPM_P1;HPM_P2
2021/06/09 00:02:04;;;;;;;18.05;11.55;;;;;;;16.35;81.09;99148.13;4880932;29;20040;-81
2021/06/09 00:04:34;;;;;;;16.48;12.15;;;;;;;16.38;80.96;99153.72;4912511;29;20059;-82
2021/06/09 00:07:00;;;;;;;20.42;13.07;;;;;;;16.42;81.10;99162.91;4897229;29;20517;-81
2021/06/09 00:09:28;;;;;;;17.77;12.02;;;;;;;16.32;81.28;99149.63;4911639;29;20107;-80
2021/06/09 00:11:54;;;;;;;16.93;12.50;;;;;;;16.36;81.44;99163.53;4878526;29;20541;-81
2021/06/09 00:14:21;;;;;;;18.83;11.82;;;;;;;16.37;81.61;99159.63;4909473;29;20284;-80
2021/06/09 00:16:48;;;;;;;16.17;12.20;;;;;;;16.51;81.31;99161.94;4897209;29;20067;-81
2021/06/09 00:21:47;;;;;;;20.77;13.07;;;;;;;16.56;81.05;99167.19;4911303;29;20056;-81
2021/06/09 00:24:15;;;;;;;16.08;13.23;;;;;;;16.58;80.96;99167.63;4912398;29;20143;-80
2021/06/09 00:26:41;;;;;;;27.33;14.32;;;;;;;16.60;80.77;99165.31;4912661;29;20044;-81
2021/06/09 00:29:08;;;;;;;30.75;14.07;;;;;;;16.54;80.76;99150.97;4909907;29;20071;-82
2021/06/09 00:31:34;;;;;;;24.93;14.73;;;;;;;16.55;80.69;99154.53;4894772;29;20654;-81
2021/06/09 00:34:01;;;;;;;21.25;13.70;;;;;;;16.61;80.72;99162.19;4893654;29;20476;-81
2021/06/09 00:36:27;;;;;;;18.90;13.77;;;;;;;16.65;80.57;99159.50;4913779;29;20043;-81
2021/06/09 00:38:53;;;;;;;19.77;13.87;;;;;;;16.66;80.46;99161.13;4916137;29;20132;-81
2021/06/09 00:41:19;;;;;;;23.47;14.20;;;;;;;16.67;80.64;99155.25;4915325;29;20513;-80
2021/06/09 00:43:45;;;;;;;20.95;13.48;;;;;;;16.66;80.51;99150.09;4910436;29;20044;-81
2021/06/09 00:46:11;;;;;;;24.52;13.68;;;;;;;16.67;80.70;99166.28;4901453;29;20085;-81
2021/06/09 00:48:41;;;;;;;22.93;13.80;;;;;;;16.72;80.89;99161.63;4917881;29;20043;-80
2021/06/09 00:51:08;;;;;;;21.85;13.73;;;;;;;16.71;80.53;99149.00;4882806;29;20139;-81
2021/06/09 00:53:40;;;;;;;35.08;14.93;;;;;;;16.77;80.55;99151.16;4893196;29;20041;-80
2021/06/09 00:56:09;;;;;;;27.63;15.57;;;;;;;16.81;80.24;99146.53;4918066;29;20498;-84
2021/06/09 00:58:36;;;;;;;25.27;16.15;;;;;;;16.89;80.46;99158.56;4916900;29;20580;-82
2021/06/09 01:01:03;;;;;;;21.20;16.25;;;;;;;16.82;80.51;99147.31;4910550;29;20513;-81
2021/06/09 01:03:31;;;;;;;18.98;16.00;;;;;;;16.79;80.83;99154.38;4900928;29;20043;-81
2021/06/09 01:06:02;;;;;;;53.10;17.60;;;;;;;16.72;81.11;99151.44;4917851;29;20055;-81
2021/06/09 01:08:33;;;;;;;38.15;17.63;;;;;;;16.72;81.14;99150.59;4916650;29;20032;-81
2021/06/09 01:11:00;;;;;;;22.02;17.90;;;;;;;16.71;81.27;99155.31;4914913;29;20486;-80
2021/06/09 01:13:32;;;;;;;21.88;17.80;;;;;;;16.76;81.17;99154.31;4882618;29;20432;-81
2021/06/09 01:16:00;;;;;;;25.52;17.23;;;;;;;16.74;81.09;99154.59;4914895;29;20056;-81
2021/06/09 01:18:26;;;;;;;18.30;15.18;;;;;;;16.63;81.07;99150.81;4916488;29;20040;-81
2021/06/09 01:20:52;;;;;;;19.95;15.13;;;;;;;16.64;81.28;99150.44;4916844;29;20099;-81
2021/06/09 01:23:19;;;;;;;20.45;16.40;;;;;;;16.66;81.09;99164.69;4910006;29;20057;-81
2021/06/09 01:25:46;;;;;;;20.85;15.43;;;;;;;16.62;81.14;99165.75;4908473;29;20048;-81
2021/06/09 01:28:12;;;;;;;;;;;;;;;16.64;81.13;99167.00;4904551;29;20048;-81
2021/06/09 01:30:38;;;;;;;23.27;15.40;;;;;;;16.62;80.97;99160.22;4898896;29;20445;-81
2021/06/09 01:33:05;;;;;;;25.90;17.90;;;;;;;16.71;80.79;99177.41;4899998;29;20051;-81
2021/06/09 01:35:31;;;;;;;27.08;16.15;;;;;;;16.75;80.86;99166.47;4916153;29;20042;-81
2021/06/09 01:37:57;;;;;;;25.17;16.87;;;;;;;16.72;80.75;99178.19;4900781;29;20040;-81
2021/06/09 01:40:26;;;;;;;43.13;16.63;;;;;;;16.73;80.90;99179.81;4917287;29;20048;-81
2021/06/09 01:42:53;;;;;;;27.90;15.80;;;;;;;16.83;80.50;99179.31;4900438;29;20051;-81
2021/06/09 01:45:22;;;;;;;22.75;14.52;;;;;;;16.84;80.03;99173.41;4904114;29;20598;-82
2021/06/09 01:47:48;;;;;;;17.23;13.93;;;;;;;16.72;79.77;99136.78;4909589;29;20145;-81
2021/06/09 01:50:16;;;;;;;18.38;14.70;;;;;;;16.57;79.51;99117.16;4897043;29;20530;-82
2021/06/09 01:52:42;;;;;;;24.23;15.25;;;;;;;16.86;79.78;99167.56;4896986;29;20426;-81
2021/06/09 01:55:10;;;;;;;24.35;15.73;;;;;;;16.79;80.11;99156.34;4899404;29;20040;-81
2021/06/09 01:57:36;;;;;;;20.88;15.95;;;;;;;16.77;80.10;99167.72;4906939;29;20039;-81
2021/06/09 02:00:08;;;;;;;22.55;15.23;;;;;;;16.74;80.11;99173.94;4897164;29;20060;-81
2021/06/09 02:02:39;;;;;;;19.48;15.23;;;;;;;16.75;80.12;99177.53;4898623;29;20040;-80
2021/06/09 02:05:30;;;;;;;23.00;15.63;;;;;;;16.72;80.44;99176.28;4914521;29;20040;-81
2021/06/09 02:07:57;;;;;;;23.92;17.17;;;;;;;16.71;80.61;99171.09;4914148;29;20083;-82
2021/06/09 02:10:23;;;;;;;23.40;16.00;;;;;;;16.71;80.67;99169.13;4914431;29;20506;-81
2021/06/09 02:12:51;;;;;;;21.77;16.83;;;;;;;16.72;80.45;99179.03;4898586;29;20469;-81
2021/06/09 02:15:19;;;;;;;22.42;16.35;;;;;;;16.76;80.23;99170.88;4900157;29;20045;-81
2021/06/09 02:18:09;;;;;;;21.70;16.48;;;;;;;16.74;80.26;99162.09;4913866;29;20044;-81
2021/06/09 02:20:43;;;;;;;24.73;16.70;;;;;;;16.82;80.22;99167.47;4900769;29;20533;-81
2021/06/09 02:23:10;;;;;;;22.80;16.95;;;;;;;16.85;80.22;99165.94;4914169;29;20044;-82
2021/06/09 02:25:37;;;;;;;27.23;16.65;;;;;;;16.88;79.85;99167.97;4898367;29;20154;-81
2021/06/09 02:28:05;;;;;;;20.77;17.45;;;;;;;16.74;80.01;99168.41;4884790;29;20044;-81
2021/06/09 02:33:02;;;;;;;23.90;17.02;;;;;;;16.73;80.21;99168.78;4913985;29;20107;-81
2021/06/09 02:35:28;;;;;;;23.05;17.02;;;;;;;16.78;80.22;99166.56;4912372;29;20139;-82
2021/06/09 02:37:55;;;;;;;24.08;18.23;;;;;;;16.78;80.14;99179.56;4912430;29;20047;-83
2021/06/09 02:40:21;;;;;;;22.92;18.92;;;;;;;16.73;80.43;99166.03;4914329;29;20050;-81
2021/06/09 02:42:48;;;;;;;22.55;16.63;;;;;;;16.62;80.38;99161.06;4914943;29;20052;-81
2021/06/09 02:45:18;;;;;;;34.15;16.52;;;;;;;16.62;80.54;99162.97;4916625;29;20066;-81
2021/06/09 02:47:53;;;;;;;20.48;15.45;;;;;;;16.61;80.46;99177.94;4911779;29;20048;-82
2021/06/09 02:50:21;;;;;;;19.83;16.02;;;;;;;16.56;80.67;99181.00;4904182;29;20111;-81
2021/06/09 02:53:02;;;;;;;27.35;15.98;;;;;;;16.51;80.65;99175.72;4915907;29;20427;-81
2021/06/09 02:55:56;;;;;;;19.60;15.90;;;;;;;16.46;80.86;99179.56;4914795;29;20119;-81
2021/06/09 02:58:50;;;;;;;23.58;15.35;;;;;;;16.45;80.98;99192.53;4914715;29;20115;-81
2021/06/09 03:01:34;;;;;;;21.00;15.80;;;;;;;16.38;80.96;99181.31;4907031;29;20582;-81
2021/06/09 03:04:45;;;;;;;23.35;16.50;;;;;;;16.51;81.05;99200.56;4897297;29;20148;-81
2021/06/09 03:07:42;;;;;;;23.52;14.55;;;;;;;16.51;80.28;99181.25;4859443;29;20140;-81
2021/06/09 03:10:50;;;;;;;61.67;17.85;;;;;;;16.68;80.01;99201.00;4861283;29;20060;-81
2021/06/09 03:16:28;;;;;;;17.75;13.32;;;;;;;16.76;79.10;99215.81;4800007;29;20053;-81
2021/06/09 03:18:54;;;;;;;18.20;13.70;;;;;;;16.63;79.18;99195.75;4833977;29;20197;-81
2021/06/09 03:21:31;;;;;;;21.23;14.73;;;;;;;16.49;79.46;99181.63;4843238;29;20170;-81
2021/06/09 03:24:13;;;;;;;19.55;14.65;;;;;;;16.33;80.25;99189.88;4845611;29;20053;-81
2021/06/09 03:26:53;;;;;;;26.85;14.43;;;;;;;16.33;80.46;99191.84;4860457;29;20053;-82
2021/06/09 03:29:44;;;;;;;24.20;15.15;;;;;;;16.47;80.33;99208.75;4845190;29;20562;-81
2021/06/09 03:32:29;;;;;;;25.35;16.35;;;;;;;16.39;80.27;99202.25;4858809;29;20052;-82
2021/06/09 03:35:09;;;;;;;25.63;16.88;;;;;;;16.42;80.86;99211.75;4863611;29;20405;-81
2021/06/09 03:37:39;;;;;;;24.20;17.85;;;;;;;16.39;80.83;99205.00;4861884;29;20554;-81
2021/06/09 03:40:06;;;;;;;27.63;17.83;;;;;;;16.51;80.73;99215.16;4897692;29;20076;-81
2021/06/09 03:42:34;;;;;;;26.00;17.33;;;;;;;16.53;80.69;99207.34;4914168;29;20083;-82
2021/06/09 03:45:00;;;;;;;29.00;17.70;;;;;;;16.50;80.67;99216.31;4914379;29;20044;-81
2021/06/09 03:47:27;;;;;;;24.92;18.38;;;;;;;16.43;80.91;99203.13;4868232;29;20055;-81
2021/06/09 03:49:53;;;;;;;47.92;18.60;;;;;;;16.44;80.68;99184.63;4898728;29;20048;-82
2021/06/09 03:52:22;;;;;;;24.48;17.67;;;;;;;16.59;80.46;99202.34;4909325;29;20040;-81
2021/06/09 03:54:50;;;;;;;27.55;17.00;;;;;;;16.49;80.34;99189.06;4891563;29;20099;-81
2021/06/09 03:57:18;;;;;;;25.75;17.85;;;;;;;16.59;80.48;99203.16;4895387;29;20040;-81
2021/06/09 03:59:46;;;;;;;26.60;18.50;;;;;;;16.53;80.46;99192.75;4895473;29;20054;-81
2021/06/09 04:02:11;;;;;;;26.77;18.33;;;;;;;16.65;80.24;99206.44;4884366;29;20402;-81
2021/06/09 04:07:09;;;;;;;35.97;19.88;;;;;;;16.53;80.38;99190.78;4912507;29;20040;-81
2021/06/09 04:09:37;;;;;;;;;;;;;;;16.51;80.74;99206.88;4915914;29;20054;-82
2021/06/09 04:12:04;;;;;;;31.27;18.27;;;;;;;16.44;80.84;99192.91;4914146;29;20025;-81
2021/06/09 04:14:38;;;;;;;33.25;18.95;;;;;;;16.60;80.63;99203.94;4896381;29;20037;-81
2021/06/09 04:17:04;;;;;;;26.92;19.20;;;;;;;16.70;80.21;99208.94;4908855;29;20131;-81
2021/06/09 04:19:30;;;;;;;28.40;21.40;;;;;;;16.75;80.27;99203.16;4917476;29;20040;-81
2021/06/09 04:21:56;;;;;;;31.87;21.33;;;;;;;16.76;79.90;99201.22;4902145;29;20047;-82
2021/06/09 04:24:23;;;;;;;35.33;20.47;;;;;;;16.71;80.28;99193.97;4915824;29;20048;-81
2021/06/09 04:26:49;;;;;;;34.45;21.88;;;;;;;16.78;80.09;99201.66;4870894;29;20064;-81
2021/06/09 04:29:15;;;;;;;33.58;22.27;;;;;;;16.79;79.76;99190.28;4882002;29;20047;-81
2021/06/09 04:31:41;;;;;;;29.33;20.33;;;;;;;16.82;79.59;99184.03;4916435;29;20485;-81
2021/06/09 04:34:07;;;;;;;36.72;22.25;;;;;;;16.89;79.42;99202.72;4917542;29;20083;-81
2021/06/09 04:36:33;;;;;;;34.40;21.87;;;;;;;16.85;79.57;99191.59;4901560;29;20501;-81
2021/06/09 04:38:59;;;;;;;41.75;23.55;;;;;;;16.96;79.28;99194.59;4900942;29;20083;-81
2021/06/09 04:41:25;;;;;;;36.22;23.25;;;;;;;16.95;79.22;99184.69;4913182;29;20099;-81
2021/06/09 04:43:52;;;;;;;39.13;21.80;;;;;;;17.10;79.08;99200.47;4916878;29;20048;-82
2021/06/09 04:46:20;;;;;;;32.35;21.02;;;;;;;17.18;78.76;99200.63;4906588;29;20466;-81
2021/06/09 04:49:00;;;;;;;41.80;22.30;;;;;;;17.14;78.60;99187.53;4898458;29;20052;-81
2021/06/09 04:51:28;;;;;;;42.08;21.65;;;;;;;17.18;78.57;99193.13;4900885;29;20041;-81
2021/06/09 04:53:54;;;;;;;36.38;21.58;;;;;;;17.23;78.38;99192.06;4886017;29;20048;-82
2021/06/09 04:56:20;;;;;;;27.00;19.73;;;;;;;17.21;78.21;99194.38;4918095;29;20040;-82
2021/06/09 04:58:47;;;;;;;;;;;;;;;17.23;78.58;99203.13;4912652;29;20043;-82
2021/06/09 05:01:13;;;;;;;31.15;18.77;;;;;;;17.18;78.53;99192.31;4916627;29;19922;-82
2021/06/09 05:03:39;;;;;;;36.63;20.63;;;;;;;17.19;78.51;99196.72;4899979;29;20059;-84
2021/06/09 05:06:05;;;;;;;36.87;19.80;;;;;;;17.31;78.32;99202.88;4903233;29;20037;-81
2021/06/09 05:08:31;;;;;;;36.77;17.83;;;;;;;17.41;78.03;99207.06;4898406;29;20226;-81
2021/06/09 05:10:57;;;;;;;27.80;18.00;;;;;;;17.47;77.90;99197.31;4899604;29;20044;-84
2021/06/09 05:13:24;;;;;;;;;;;;;;;17.53;77.42;99200.63;4909573;29;20055;-81
2021/06/09 05:15:54;;;;;;;132.50;20.50;;;;;;;17.55;77.47;99204.63;4899216;29;19978;-81
2021/06/09 05:18:26;;;;;;;61.92;18.38;;;;;;;17.54;77.44;99197.47;4914423;29;20426;-81
2021/06/09 05:20:52;;;;;;;31.00;16.75;;;;;;;17.66;77.26;99210.38;4892182;29;20143;-82
2021/06/09 05:23:29;;;;;;;30.67;16.77;;;;;;;17.62;76.87;99192.91;4902669;29;20123;-82
2021/06/09 05:25:55;;;;;;;24.98;17.00;;;;;;;17.67;76.96;99208.41;4895440;29;20072;-81
2021/06/09 05:28:22;;;;;;;33.05;17.55;;;;;;;17.59;76.96;99204.69;4882231;29;20060;-80
2021/06/09 05:30:52;;;;;;;24.05;16.83;;;;;;;17.64;77.00;99203.59;4897480;29;20511;-80
2021/06/09 05:33:18;;;;;;;23.42;17.65;;;;;;;17.66;76.84;99202.06;4916092;29;20048;-81
2021/06/09 05:35:44;;;;;;;36.03;20.53;;;;;;;17.72;77.06;99199.84;4915004;29;20090;-80
2021/06/09 05:38:10;;;;;;;30.20;18.35;;;;;;;17.75;76.73;99201.88;4901799;29;20046;-81
2021/06/09 05:40:37;;;;;;;38.35;19.58;;;;;;;17.69;77.20;99209.66;4897103;29;20503;-81
2021/06/09 05:43:03;;;;;;;24.88;17.90;;;;;;;17.64;76.91;99203.59;4898560;29;20052;-82
2021/06/09 05:45:30;;;;;;;37.80;18.92;;;;;;;17.74;77.11;99216.84;4889725;29;20582;-85
2021/06/09 05:47:57;;;;;;;35.78;17.30;;;;;;;17.77;76.58;99210.63;4916131;29;20056;-82
2021/06/09 05:50:27;;;;;;;24.27;15.85;;;;;;;17.79;76.00;99211.88;4916162;29;20052;-81
2021/06/09 05:52:57;;;;;;;25.83;16.35;;;;;;;17.74;76.41;99212.09;4915783;29;20048;-82
2021/06/09 05:55:25;;;;;;;21.55;16.20;;;;;;;17.91;75.92;99216.44;4915125;29;20040;-82
2021/06/09 05:57:51;;;;;;;45.38;17.42;;;;;;;18.01;75.80;99209.50;4897591;29;20097;-83
2021/06/09 06:00:19;;;;;;;31.15;15.25;;;;;;;18.15;75.01;99209.81;4897162;29;20561;-82
2021/06/09 06:02:46;;;;;;;32.28;15.98;;;;;;;18.29;74.71;99217.56;4911486;29;20472;-83
2021/06/09 06:05:11;;;;;;;;;;;;;;;18.30;74.18;99202.56;4915381;29;20044;-82
2021/06/09 06:07:37;;;;;;;29.47;18.23;;;;;;;18.31;74.53;99207.75;4901380;29;19946;-82
2021/06/09 06:10:07;;;;;;;29.40;18.83;;;;;;;18.42;73.65;99207.13;4897022;29;20285;-82
2021/06/09 06:12:33;;;;;;;30.67;18.33;;;;;;;18.30;73.46;99189.50;4906296;29;20096;-82
2021/06/09 06:14:59;;;;;;;45.03;19.88;;;;;;;18.54;73.63;99216.06;4899917;29;20094;-82
2021/06/09 06:17:25;;;;;;;35.90;18.13;;;;;;;18.56;73.09;99212.91;4915397;29;20047;-82
2021/06/09 06:19:51;;;;;;;36.83;17.47;;;;;;;18.51;72.81;99200.19;4916802;29;20414;-83
2021/06/09 06:22:18;;;;;;;35.33;17.77;;;;;;;18.61;72.46;99215.38;4899676;29;20060;-82
2021/06/09 06:24:49;;;;;;;37.00;17.98;;;;;;;18.57;72.44;99211.72;4907291;29;20553;-83
2021/06/09 06:27:15;;;;;;;42.58;21.15;;;;;;;18.68;72.49;99214.69;4881338;29;20063;-84
2021/06/09 06:29:43;;;;;;;;;;;;;;;18.69;72.73;99219.06;4896997;29;20040;-82
2021/06/09 06:32:10;;;;;;;39.63;21.02;;;;;;;18.73;73.08;99219.94;4897611;29;19928;-82
2021/06/09 06:34:39;;;;;;;27.00;16.42;;;;;;;18.69;73.10;99221.84;4911967;29;20048;-82
2021/06/09 06:37:06;;;;;;;28.30;17.20;;;;;;;18.54;72.60;99221.59;4880422;29;20120;-82
2021/06/09 06:39:34;;;;;;;30.77;16.70;;;;;;;18.45;72.57;99218.25;4880914;29;20066;-82
2021/06/09 06:42:03;;;;;;;31.58;17.45;;;;;;;18.41;73.61;99225.72;4897522;29;20307;-83
2021/06/09 06:44:30;;;;;;;26.40;15.98;;;;;;;18.57;72.99;99224.78;4911272;29;20036;-82
2021/06/09 06:46:56;;;;;;;42.67;17.52;;;;;;;18.63;72.43;99220.53;4900130;29;20048;-82
2021/06/09 06:49:22;;;;;;;29.20;15.90;;;;;;;18.72;73.41;99227.47;4905107;29;20127;-81
2021/06/09 06:51:52;;;;;;;31.13;16.30;;;;;;;18.78;72.63;99225.19;4899393;29;20076;-82
2021/06/09 06:54:19;;;;;;;23.33;14.50;;;;;;;18.79;71.96;99232.31;4914993;29;20087;-82
2021/06/09 06:56:51;;;;;;;35.83;15.60;;;;;;;18.87;71.51;99234.03;4899337;29;20040;-82
2021/06/09 06:59:17;;;;;;;44.00;16.15;;;;;;;18.94;71.17;99239.72;4910343;29;20068;-82
2021/06/09 07:01:43;;;;;;;25.07;15.37;;;;;;;18.95;70.95;99235.75;4880293;29;20554;-83
2021/06/09 07:04:09;;;;;;;29.50;14.63;;;;;;;19.07;70.77;99242.25;4903282;29;20087;-82
2021/06/09 07:06:36;;;;;;;34.27;16.37;;;;;;;19.29;70.19;99241.41;4912651;29;20040;-82
2021/06/09 07:09:03;;;;;;;24.35;13.10;;;;;;;19.17;70.27;99242.44;4915887;29;20126;-82
2021/06/09 07:11:29;;;;;;;27.52;13.00;;;;;;;19.00;70.54;99242.94;4913651;29;20474;-83
2021/06/09 07:13:56;;;;;;;52.55;15.48;;;;;;;19.10;70.90;99244.28;4914048;29;20036;-83
2021/06/09 07:16:24;;;;;;;21.75;12.45;;;;;;;19.17;69.85;99244.38;4914112;29;20529;-83
2021/06/09 07:18:50;;;;;;;59.75;13.45;;;;;;;19.17;69.61;99248.00;4913408;29;20047;-83
2021/06/09 07:21:17;;;;;;;25.40;12.40;;;;;;;19.11;69.59;99248.69;4912470;29;20122;-82
2021/06/09 07:23:44;;;;;;;77.22;15.13;;;;;;;19.21;69.38;99234.19;4914972;29;20051;-84
2021/06/09 07:26:10;;;;;;;17.40;11.97;;;;;;;19.49;68.22;99231.81;4917561;29;20094;-83
2021/06/09 07:28:44;;;;;;;26.08;12.88;;;;;;;19.74;67.47;99247.25;4909757;29;20283;-84
2021/06/09 07:31:16;;;;;;;38.17;13.60;;;;;;;19.85;66.81;99248.97;4906008;29;20154;-84
2021/06/09 07:33:45;;;;;;;26.80;12.77;;;;;;;19.83;66.88;99245.75;4915879;29;20051;-82
2021/06/09 07:36:12;;;;;;;24.50;13.00;;;;;;;19.96;67.28;99232.44;4885795;29;20087;-83
2021/06/09 07:38:40;;;;;;;23.60;13.15;;;;;;;20.02;67.58;99241.22;4933114;29;20039;-82
2021/06/09 07:41:07;;;;;;;21.20;12.50;;;;;;;19.71;66.92;99234.91;4901516;29;20573;-82
2021/06/09 07:43:37;;;;;;;24.43;12.67;;;;;;;19.71;67.67;99230.16;4896205;29;20156;-84
2021/06/09 07:46:03;;;;;;;14.35;9.85;;;;;;;19.74;67.90;99241.69;4909065;29;20085;-82
2021/06/09 07:48:29;;;;;;;19.15;10.68;;;;;;;19.59;68.35;99237.88;4915043;29;20048;-82
2021/06/09 07:50:58;;;;;;;;;;;;;;;19.55;68.89;99248.94;4905921;29;20082;-81
2021/06/09 07:53:25;;;;;;;77.22;14.65;;;;;;;19.59;69.29;99254.53;4920857;29;19966;-82
2021/06/09 07:55:53;;;;;;;23.02;12.02;;;;;;;19.75;68.74;99252.41;4902514;29;20048;-81
2021/06/09 07:58:22;;;;;;;20.57;11.17;;;;;;;19.85;66.06;99260.06;4919549;29;20514;-82
2021/06/09 08:00:51;;;;;;;39.17;12.20;;;;;;;19.93;66.31;99256.22;4920783;29;20052;-82
2021/06/09 08:03:17;;;;;;;30.75;12.20;;;;;;;20.04;65.25;99258.31;4905663;29;20536;-83
2021/06/09 08:05:43;;;;;;;30.00;11.50;;;;;;;20.10;64.95;99252.06;4938122;29;20043;-82
2021/06/09 08:08:12;;;;;;;26.40;11.13;;;;;;;20.15;65.49;99240.59;4900936;29;20127;-82
2021/06/09 08:10:40;;;;;;;16.90;10.50;;;;;;;20.19;66.84;99260.06;4920812;29;20075;-82
2021/06/09 08:13:06;;;;;;;31.58;10.95;;;;;;;20.41;66.01;99263.88;4904756;29;20051;-83
2021/06/09 08:15:33;;;;;;;;;;;;;;;20.21;65.98;99257.72;4905830;29;20501;-82
2021/06/09 08:17:59;;;;;;;22.83;11.05;;;;;;;19.97;66.93;99260.97;4917626;29;20074;-82
2021/06/09 08:20:25;;;;;;;51.00;12.85;;;;;;;19.69;67.95;99246.38;4914618;29;20048;-82
2021/06/09 08:22:51;;;;;;;24.90;11.73;;;;;;;19.77;67.78;99254.78;4925675;29;20047;-83
2021/06/09 08:25:19;;;;;;;21.13;11.18;;;;;;;19.61;67.53;99247.44;4936044;29;20054;-86
2021/06/09 08:27:47;;;;;;;26.17;11.85;;;;;;;19.63;68.09;99256.19;4921030;29;20070;-83
2021/06/09 08:30:14;;;;;;;20.77;11.38;;;;;;;19.56;67.91;99252.50;4932334;29;20035;-85
2021/06/09 08:32:40;;;;;;;22.40;12.38;;;;;;;19.53;67.90;99258.78;4913037;29;20151;-84
2021/06/09 08:35:08;;;;;;;27.75;11.82;;;;;;;19.64;68.36;99259.78;4932588;29;20044;-84
2021/06/09 08:37:35;;;;;;;40.58;12.73;;;;;;;19.77;68.25;99252.81;4927627;29;20040;-84
2021/06/09 08:40:01;;;;;;;18.40;10.80;;;;;;;19.63;67.14;99260.91;4912631;29;20040;-82
2021/06/09 08:42:27;;;;;;;20.90;12.27;;;;;;;19.52;68.26;99263.53;4898836;29;20047;-83
2021/06/09 08:44:53;;;;;;;30.42;12.43;;;;;;;19.42;68.80;99256.66;4904582;29;20068;-84
2021/06/09 08:47:21;;;;;;;19.70;12.27;;;;;;;19.43;68.65;99226.97;4896074;29;20051;-83
2021/06/09 08:49:47;;;;;;;18.83;11.30;;;;;;;19.70;67.23;99248.00;4925370;29;20054;-84
2021/06/09 08:52:13;;;;;;;21.40;11.83;;;;;;;20.05;66.59;99257.13;4894243;29;20051;-83
2021/06/09 08:54:45;;;;;;;27.90;12.07;;;;;;;20.35;65.85;99268.97;4931078;29;20127;-84
2021/06/09 08:57:13;;;;;;;18.05;11.70;;;;;;;20.25;64.63;99244.69;4895452;29;20086;-83
2021/06/09 08:59:40;;;;;;;67.15;13.48;;;;;;;20.29;64.91;99245.50;4907998;29;20047;-84
2021/06/09 09:02:09;;;;;;;21.27;11.05;;;;;;;20.41;64.75;99258.34;4887268;29;20115;-82
2021/06/09 09:04:37;;;;;;;34.97;12.20;;;;;;;20.37;65.09;99251.94;4914503;29;20528;-84
2021/06/09 09:07:04;;;;;;;50.13;12.98;;;;;;;20.48;65.15;99258.41;4889904;29;20040;-84
2021/06/09 09:09:30;;;;;;;39.92;13.05;;;;;;;20.45;64.80;99252.81;4930630;29;20091;-84
2021/06/09 09:11:57;;;;;;;23.90;11.10;;;;;;;20.45;63.44;99250.03;4926954;29;20870;-84
2021/06/09 09:14:24;;;;;;;98.18;13.82;;;;;;;20.41;63.36;99248.03;4906384;29;20035;-83
2021/06/09 09:17:03;;;;;;;;;;;;;;;20.43;63.55;99261.53;4919330;29;20477;-84
2021/06/09 09:19:34;;;;;;;44.85;12.63;;;;;;;20.46;63.62;99260.75;4918062;29;19933;-84
2021/06/09 09:22:02;;;;;;;36.13;12.23;;;;;;;20.28;63.31;99226.47;4921866;29;20525;-83
2021/06/09 09:24:42;;;;;;;41.13;11.45;;;;;;;20.61;62.62;99259.75;4929177;29;20059;-85
2021/06/09 09:27:13;;;;;;;19.30;10.57;;;;;;;20.55;63.07;99246.59;4930637;29;20050;-84
2021/06/09 09:29:39;;;;;;;32.55;11.80;;;;;;;20.40;63.57;99243.66;4930956;29;20130;-84
2021/06/09 09:32:07;;;;;;;37.50;11.75;;;;;;;20.35;64.49;99244.00;4936232;29;20040;-84
2021/06/09 09:34:39;;;;;;;28.23;10.00;;;;;;;20.16;64.63;99246.94;4905751;29;20080;-82
2021/06/09 09:37:12;;;;;;;19.38;11.02;;;;;;;20.11;64.78;99233.41;4919234;29;20074;-85
2021/06/09 09:39:40;;;;;;;40.50;11.45;;;;;;;20.37;63.67;99241.63;4899654;29;20079;-85
2021/06/09 09:42:20;;;;;;;12.75;9.40;;;;;;;20.50;62.39;99238.59;4936424;29;20042;-84
2021/06/09 09:44:47;;;;;;;31.70;10.90;;;;;;;20.17;62.97;99201.38;4924774;29;20051;-83
2021/06/09 09:47:21;;;;;;;;;;;;;;;20.57;63.44;99247.81;4902932;29;20036;-84
2021/06/09 09:49:50;;;;;;;30.10;11.63;;;;;;;20.59;64.36;99247.44;4907121;29;19930;-84
2021/06/09 09:52:17;;;;;;;38.95;11.60;;;;;;;20.52;63.56;99239.81;4904865;29;20538;-83
2021/06/09 09:54:43;;;;;;;;;;;;;;;20.64;64.05;99241.53;4899412;29;20536;-84
2021/06/09 09:57:12;;;;;;;14.38;9.13;;;;;;;20.50;61.94;99205.28;4928627;29;19923;-85
2021/06/09 09:59:41;;;;;;;15.55;9.00;;;;;;;20.62;61.33;99225.25;4911326;29;20031;-85
2021/06/09 10:02:16;;;;;;;34.92;11.02;;;;;;;20.77;61.91;99236.50;4914353;29;20079;-82
2021/06/09 10:04:49;;;;;;;;;;;;;;;20.81;60.65;99240.09;4921705;29;20450;-82
2021/06/09 10:07:16;;;;;;;13.30;8.23;;;;;;;20.76;60.23;99235.72;4900538;29;20018;-79
2021/06/09 10:09:43;;;;;;;19.77;8.57;;;;;;;20.72;61.03;99223.75;4878052;29;20453;-81
2021/06/09 10:20:57;;;;;;;;;;;;;;;20.84;60.34;99229.00;5426466;23;20059;-77
2021/06/09 10:23:37;;;;;;;11.98;7.70;;;;;;;20.86;60.92;99220.28;4930627;29;20028;-78
2021/06/09 10:26:11;;;;;;;26.77;7.72;;;;;;;20.93;61.04;99227.91;4934598;29;20086;-78
2021/06/09 10:29:00;;;;;;;18.85;7.63;;;;;;;20.81;60.65;99224.22;4917063;29;20071;-80
2021/06/09 10:31:33;;;;;;;42.95;9.13;;;;;;;20.80;61.42;99221.84;4934917;29;20035;-78
2021/06/09 10:33:59;;;;;;;15.55;8.13;;;;;;;20.90;60.55;99217.56;4913602;29;20039;-79
2021/06/09 10:36:25;;;;;;;26.23;7.43;;;;;;;21.04;59.45;99221.22;4937030;29;20111;-80
2021/06/09 10:38:52;;;;;;;20.50;7.85;;;;;;;21.16;59.17;99211.81;4911933;29;20048;-80
2021/06/09 10:41:19;;;;;;;24.92;6.93;;;;;;;21.29;58.96;99217.81;4917833;29;20130;-79
2021/06/09 10:57:29;;;;;;;41.30;9.23;;;;;;;21.92;57.93;99221.34;5122369;27;20399;-80
2021/06/09 10:59:55;;;;;;;29.67;8.48;;;;;;;21.80;57.93;99214.16;5031146;28;20604;-79
2021/06/09 11:02:22;;;;;;;27.00;8.25;;;;;;;21.77;57.70;99218.53;5018950;28;20069;-78
2021/06/09 11:04:49;;;;;;;17.50;8.70;;;;;;;21.91;57.87;99222.56;5026279;28;20411;-78
2021/06/09 11:07:35;;;;;;;54.38;9.65;;;;;;;21.79;57.63;99193.91;5034099;28;20417;-78
2021/06/09 11:10:03;;;;;;;41.33;10.13;;;;;;;22.03;57.22;99216.63;5024374;28;20448;-78
2021/06/09 11:12:30;;;;;;;36.22;8.57;;;;;;;21.87;55.67;99224.53;5050560;28;20117;-78
2021/06/09 11:15:02;;;;;;;41.38;8.73;;;;;;;21.93;56.18;99225.75;5042394;28;20502;-77
2021/06/09 11:17:49;;;;;;;31.92;8.20;;;;;;;21.89;56.33;99222.16;5042561;28;20052;-78
2021/06/09 11:20:34;;;;;;;16.55;8.85;;;;;;;21.99;55.91;99211.06;5049742;28;20037;-78
2021/06/09 11:23:11;;;;;;;21.20;9.30;;;;;;;22.16;56.52;99215.13;5028992;28;20045;-77
2021/06/09 11:25:41;;;;;;;26.48;8.20;;;;;;;22.10;55.85;99210.28;5021620;28;20041;-78
2021/06/09 11:28:16;;;;;;;21.08;7.20;;;;;;;22.06;56.16;99215.84;5028304;28;20042;-77
2021/06/09 11:30:55;;;;;;;32.17;8.07;;;;;;;21.99;55.79;99199.13;5021509;28;20403;-79
2021/06/09 11:33:40;;;;;;;18.90;8.00;;;;;;;21.92;56.49;99204.66;5035582;28;20037;-79
2021/06/09 11:36:15;;;;;;;32.45;8.55;;;;;;;21.80;56.83;99203.81;5040267;28;20046;-79
2021/06/09 11:38:42;;;;;;;27.77;7.65;;;;;;;21.79;56.90;99201.44;5030571;28;20045;-78
2021/06/09 11:41:11;;;;;;;16.58;7.28;;;;;;;21.60;56.91;99193.41;5031247;28;20502;-77
2021/06/09 11:43:39;;;;;;;21.77;7.53;;;;;;;21.43;57.67;99208.81;5030419;28;20074;-78
2021/06/09 11:46:11;;;;;;;20.00;7.30;;;;;;;21.22;58.30;99218.56;5026094;28;20091;-77
2021/06/09 11:48:38;;;;;;;25.60;7.25;;;;;;;20.97;58.58;99210.06;5025264;28;20049;-78
2021/06/09 11:51:37;;;;;;;22.00;6.65;;;;;;;20.90;59.05;99207.25;5039957;28;20048;-80
2021/06/09 11:54:23;;;;;;;22.90;7.45;;;;;;;20.71;59.61;99208.25;5032666;28;20131;-79
2021/06/09 11:56:57;;;;;;;23.95;7.10;;;;;;;20.73;59.86;99205.91;5020158;28;20088;-79
2021/06/09 11:59:33;;;;;;;20.50;6.95;;;;;;;20.64;60.26;99203.44;5012969;28;20095;-79
2021/06/09 12:02:08;;;;;;;21.00;6.72;;;;;;;20.59;60.80;99203.00;5016521;28;20038;-80
2021/06/09 12:04:42;;;;;;;36.78;7.90;;;;;;;20.52;61.27;99203.72;5011791;28;20042;-80
2021/06/09 12:07:11;;;;;;;29.77;7.90;;;;;;;20.46;61.43;99198.88;5045821;28;20050;-80